createdAt,value
2018-12-28T00:00:29.706Z,0.03
2018-12-28T00:03:01.428Z,-0.01
2018-12-28T00:05:32.471Z,0.08
2018-12-28T00:08:04.011Z,0.05
2018-12-28T00:10:35.007Z,0.16
2018-12-28T00:13:06.012Z,0.04
2018-12-28T00:15:37.575Z,0.12
2018-12-28T00:18:09.563Z,0.07
2018-12-28T00:20:40.537Z,-0.05
2018-12-28T00:23:11.812Z,-0.05
2018-12-28T00:25:42.560Z,0.00
2018-12-28T00:28:13.510Z,-0.03
2018-12-28T00:30:44.860Z,0.02
2018-12-28T00:33:15.866Z,-0.05
2018-12-28T00:35:47.160Z,-0.01
2018-12-28T00:38:18.220Z,0.02
2018-12-28T00:40:49.200Z,0.08
2018-12-28T00:43:20.425Z,0.02
2018-12-28T00:45:52.331Z,0.00
2018-12-28T00:48:23.178Z,0.04
2018-12-28T00:50:54.452Z,0.09
2018-12-28T00:53:26.040Z,0.02
2018-12-28T00:55:57.335Z,0.00
2018-12-28T00:58:28.393Z,0.07
2018-12-28T01:00:59.151Z,0.08
2018-12-28T01:03:30.480Z,0.12
2018-12-28T01:06:01.452Z,0.10
2018-12-28T01:08:32.787Z,0.02
2018-12-28T01:11:04.417Z,-0.03
2018-12-28T01:13:35.287Z,-0.11
2018-12-28T01:16:06.381Z,-0.15
2018-12-28T01:18:37.750Z,-0.10
2018-12-28T01:21:09.232Z,-0.07
2018-12-28T01:23:40.268Z,-0.08
2018-12-28T01:26:11.045Z,0.03
2018-12-28T01:28:42.041Z,0.08
2018-12-28T01:31:13.123Z,0.05
2018-12-28T01:33:45.294Z,0.05
2018-12-28T01:36:16.364Z,0.05
2018-12-28T01:38:47.842Z,0.03
2018-12-28T01:41:19.202Z,-0.04
2018-12-28T01:43:50.559Z,-0.11
2018-12-28T01:46:21.905Z,0.04
2018-12-28T01:48:52.771Z,-0.04
2018-12-28T01:51:23.788Z,0.06
2018-12-28T01:53:54.970Z,0.06
2018-12-28T01:56:26.275Z,0.09
2018-12-28T01:58:57.051Z,0.08
2018-12-28T02:01:28.459Z,0.07
2018-12-28T02:03:59.747Z,0.09
2018-12-28T02:06:30.611Z,0.08
2018-12-28T02:09:01.982Z,-0.02
2018-12-28T02:11:34.395Z,0.01
2018-12-28T02:14:05.418Z,-0.01
2018-12-28T02:16:36.779Z,-0.10
2018-12-28T02:19:08.119Z,-0.04
2018-12-28T02:21:39.445Z,-0.08
2018-12-28T02:24:10.897Z,-0.07
2018-12-28T02:26:42.211Z,-0.09
2018-12-28T02:29:13.242Z,-0.08
2018-12-28T02:31:44.190Z,-0.05
2018-12-28T02:34:15.414Z,-0.10
2018-12-28T02:36:46.832Z,-0.22
2018-12-28T02:39:17.866Z,-0.19
2018-12-28T02:41:49.286Z,-0.14
2018-12-28T02:44:20.342Z,-0.12
2018-12-28T02:46:51.358Z,-0.09
2018-12-28T02:49:22.442Z,-0.16
2018-12-28T02:51:53.647Z,-0.08
2018-12-28T02:54:24.668Z,-0.05
2018-12-28T02:56:55.783Z,-0.05
2018-12-28T02:59:27.163Z,-0.13
2018-12-28T03:01:58.199Z,-0.06
2018-12-28T03:04:28.975Z,-0.11
2018-12-28T03:06:59.841Z,-0.11
2018-12-28T03:09:35.247Z,-0.19
2018-12-28T03:12:07.099Z,-0.12
2018-12-28T03:14:38.224Z,-0.09
2018-12-28T03:17:09.554Z,-0.12
2018-12-28T03:19:40.895Z,-0.10
2018-12-28T03:22:12.071Z,-0.09
2018-12-28T03:24:43.270Z,-0.04
2018-12-28T03:27:14.427Z,-0.05
2018-12-28T03:29:46.125Z,-0.07
2018-12-28T03:32:17.501Z,-0.05
2018-12-28T03:34:49.581Z,-0.09
2018-12-28T03:37:20.950Z,-0.13
2018-12-28T03:39:52.511Z,-0.05
2018-12-28T03:42:24.094Z,-0.05
2018-12-28T03:44:54.897Z,-0.01
2018-12-28T03:47:26.254Z,0.04
2018-12-28T03:49:57.116Z,-0.04
2018-12-28T03:52:28.211Z,-0.06
2018-12-28T03:54:59.036Z,-0.11
2018-12-28T03:57:29.988Z,-0.13
2018-12-28T04:00:02.065Z,-0.11
2018-12-28T04:02:34.163Z,-0.05
2018-12-28T04:05:05.558Z,-0.16
2018-12-28T04:07:36.671Z,-0.18
2018-12-28T04:10:07.454Z,-0.27
2018-12-28T04:12:38.506Z,-0.17
2018-12-28T04:15:09.874Z,-0.24
2018-12-28T04:17:41.138Z,-0.24
2018-12-28T04:20:12.495Z,-0.25
2018-12-28T04:22:43.838Z,-0.19
2018-12-28T04:25:15.020Z,-0.15
2018-12-28T04:27:46.564Z,-0.21
2018-12-28T04:30:17.757Z,-0.19
2018-12-28T04:32:48.794Z,-0.23
2018-12-28T04:35:19.979Z,-0.20
2018-12-28T04:37:51.025Z,-0.28
2018-12-28T04:40:21.897Z,-0.26
2018-12-28T04:42:53.358Z,-0.32
2018-12-28T04:45:24.674Z,-0.38
2018-12-28T04:47:55.787Z,-0.27
2018-12-28T04:50:26.577Z,-0.21
2018-12-28T04:52:57.671Z,-0.23
2018-12-28T04:55:29.165Z,-0.13
2018-12-28T04:58:01.496Z,-0.20
2018-12-28T05:00:37.411Z,-0.26
2018-12-28T05:03:19.100Z,-0.23
2018-12-28T05:06:30.672Z,-0.13
2018-12-28T05:09:44.778Z,-0.20
2018-12-28T05:12:32.378Z,-0.25
2018-12-28T05:15:56.689Z,-0.21
2018-12-28T05:19:04.012Z,-0.32
2018-12-28T05:21:57.116Z,-0.32
2018-12-28T05:24:48.260Z,-0.38
2018-12-28T05:28:09.397Z,-0.44
2018-12-28T05:31:16.711Z,-0.38
2018-12-28T05:33:47.935Z,-0.28
2018-12-28T05:36:19.042Z,-0.25
2018-12-28T05:38:49.840Z,-0.26
2018-12-28T05:41:20.948Z,-0.28
2018-12-28T05:43:52.684Z,-0.36
2018-12-28T05:46:24.055Z,-0.34
2018-12-28T05:48:55.442Z,-0.29
2018-12-28T05:51:26.535Z,-0.33
2018-12-28T05:53:58.228Z,-0.44
2018-12-28T05:56:29.670Z,-0.45
2018-12-28T05:59:01.060Z,-0.37
2018-12-28T06:01:35.895Z,-0.44
2018-12-28T06:07:30.889Z,-0.49
2018-12-28T06:10:03.893Z,-0.37
2018-12-28T06:12:35.058Z,-0.36
2018-12-28T06:15:06.351Z,-0.33
2018-12-28T06:17:37.667Z,-0.23
2018-12-28T06:20:08.902Z,-0.20
2018-12-28T06:22:40.550Z,-0.17
2018-12-28T06:25:11.722Z,-0.30
2018-12-28T06:27:43.198Z,-0.24
2018-12-28T06:30:14.410Z,-0.21
2018-12-28T06:32:45.910Z,-0.21
2018-12-28T06:35:17.000Z,-0.26
2018-12-28T06:37:48.440Z,-0.29
2018-12-28T06:40:19.303Z,-0.31
2018-12-28T06:42:50.478Z,-0.27
2018-12-28T06:45:21.462Z,-0.21
2018-12-28T06:47:52.605Z,-0.21
2018-12-28T06:50:23.959Z,-0.32
2018-12-28T06:53:34.988Z,-0.30
2018-12-28T06:56:35.363Z,-0.30
2018-12-28T06:59:54.416Z,-0.36
2018-12-28T07:03:24.606Z,-0.29
2018-12-28T07:06:31.171Z,-0.37
2018-12-28T07:09:43.211Z,-0.27
2018-12-28T07:12:47.938Z,-0.21
2018-12-28T07:15:50.039Z,-0.19
2018-12-28T07:18:56.986Z,-0.19
2018-12-28T07:21:56.268Z,-0.20
2018-12-28T07:25:12.955Z,-0.24
2018-12-28T07:28:20.059Z,-0.16
2018-12-28T07:31:26.501Z,-0.27
2018-12-28T07:34:50.607Z,-0.25
2018-12-28T07:38:04.217Z,-0.23
2018-12-28T07:41:10.093Z,-0.23
2018-12-28T07:44:22.213Z,-0.18
2018-12-28T07:47:19.841Z,-0.15
2018-12-28T07:50:21.881Z,-0.10
2018-12-28T07:53:22.646Z,0.02
2018-12-28T07:56:38.273Z,0.07
2018-12-28T07:59:49.235Z,-0.05
2018-12-28T08:03:03.328Z,-0.03
2018-12-28T08:06:17.185Z,-0.06
2018-12-28T08:09:18.030Z,0.04
2018-12-28T08:12:28.250Z,0.08
2018-12-28T08:15:15.352Z,0.06
2018-12-28T08:18:29.026Z,0.07
2018-12-28T08:21:42.927Z,0.00
2018-12-28T08:24:57.101Z,0.01
2018-12-28T08:27:54.392Z,-0.02
2018-12-28T08:31:33.494Z,0.06
2018-12-28T08:34:42.270Z,-0.02
2018-12-28T08:38:12.369Z,0.09
2018-12-28T08:41:20.649Z,0.14
2018-12-28T08:44:34.559Z,-0.02
2018-12-28T08:47:52.201Z,0.01
2018-12-28T08:51:20.037Z,0.00
2018-12-28T08:54:15.674Z,0.03
2018-12-28T08:57:35.385Z,0.06
2018-12-28T09:00:59.585Z,0.03
2018-12-28T09:04:38.964Z,0.14
2018-12-28T09:07:41.021Z,0.21
2018-12-28T09:10:36.650Z,0.15
2018-12-28T09:13:47.955Z,0.37
2018-12-28T09:17:09.157Z,0.21
2018-12-28T09:20:48.553Z,0.30
2018-12-28T09:23:42.642Z,0.30
2018-12-28T09:26:41.618Z,0.26
2018-12-28T09:29:20.673Z,0.36
2018-12-28T09:32:24.805Z,0.39
2018-12-28T09:35:29.137Z,0.48
2018-12-28T09:38:34.049Z,0.37
2018-12-28T09:41:48.126Z,0.35
2018-12-28T09:44:57.819Z,0.41
2018-12-28T09:47:46.818Z,0.47
2018-12-28T09:51:03.878Z,0.39
2018-12-28T09:53:48.247Z,0.55
2018-12-28T09:56:53.233Z,0.53
2018-12-28T09:59:50.002Z,0.45
2018-12-28T10:03:10.370Z,0.44
2018-12-28T10:05:59.403Z,0.51
2018-12-28T10:08:59.641Z,0.58
2018-12-28T10:12:04.385Z,0.66
2018-12-28T10:14:54.127Z,0.63
2018-12-28T10:17:25.300Z,0.63
2018-12-28T10:19:56.722Z,0.78
2018-12-28T10:22:30.740Z,0.63
2018-12-28T10:25:04.674Z,0.68
2018-12-28T10:27:36.959Z,0.64
2018-12-28T10:30:11.323Z,0.61
2018-12-28T10:32:43.907Z,0.59
2018-12-28T10:35:15.706Z,0.59
2018-12-28T10:37:53.003Z,0.64
2018-12-28T10:40:24.852Z,0.61
2018-12-28T10:42:55.728Z,0.70
2018-12-28T10:45:26.941Z,0.77
2018-12-28T10:47:58.324Z,0.79
2018-12-28T10:50:29.579Z,0.77
2018-12-28T10:53:01.163Z,0.71
2018-12-28T10:55:32.319Z,0.67
2018-12-28T10:58:03.828Z,0.71
2018-12-28T11:00:35.246Z,0.81
2018-12-28T11:03:06.117Z,0.71
2018-12-28T11:05:37.460Z,0.70
2018-12-28T11:08:08.601Z,0.77
2018-12-28T11:10:40.206Z,0.70
2018-12-28T11:13:11.130Z,0.83
2018-12-28T11:15:41.980Z,0.88
2018-12-28T11:18:13.162Z,0.83
2018-12-28T11:20:44.262Z,0.74
2018-12-28T11:23:15.664Z,0.73
2018-12-28T11:25:46.448Z,0.82
2018-12-28T11:28:17.620Z,0.71
2018-12-28T11:30:48.704Z,0.72
2018-12-28T11:33:20.172Z,0.73
2018-12-28T11:35:51.410Z,0.75
2018-12-28T11:38:22.574Z,0.82
2018-12-28T11:40:53.624Z,0.78
2018-12-28T11:43:24.870Z,0.69
2018-12-28T11:45:59.778Z,0.82
2018-12-28T11:48:29.181Z,0.87
2018-12-28T11:51:00.470Z,0.79
2018-12-28T11:53:32.093Z,0.77
2018-12-28T11:56:03.539Z,0.82
2018-12-28T11:58:34.705Z,0.80
2018-12-28T12:01:06.026Z,0.85
2018-12-28T12:03:37.392Z,0.79
2018-12-28T12:06:08.619Z,0.84
2018-12-28T12:08:39.450Z,0.91
2018-12-28T12:11:10.447Z,0.92
2018-12-28T12:13:42.097Z,0.96
2018-12-28T12:16:13.326Z,0.95
2018-12-28T12:18:44.666Z,0.96
2018-12-28T12:21:16.113Z,0.89
2018-12-28T12:23:48.049Z,0.78
2018-12-28T12:26:19.155Z,0.92
2018-12-28T12:28:50.809Z,0.83
2018-12-28T12:31:22.076Z,0.81
2018-12-28T12:33:53.086Z,0.83
2018-12-28T12:36:24.416Z,0.89
2018-12-28T12:38:55.342Z,0.97
2018-12-28T12:41:27.559Z,0.99
2018-12-28T12:43:59.555Z,0.90
2018-12-28T12:46:30.799Z,0.88
2018-12-28T12:49:03.005Z,0.91
2018-12-28T12:51:34.055Z,1.00
2018-12-28T12:54:05.488Z,1.08
2018-12-28T12:56:37.722Z,1.06
2018-12-28T12:59:09.221Z,1.16
2018-12-28T13:01:40.426Z,1.04
2018-12-28T13:04:11.539Z,0.97
2018-12-28T13:06:43.051Z,1.00
2018-12-28T13:09:14.082Z,1.14
2018-12-28T13:11:45.590Z,1.26
2018-12-28T13:14:16.618Z,1.25
2018-12-28T13:16:48.317Z,1.19
2018-12-28T13:19:20.164Z,1.19
2018-12-28T13:21:51.362Z,1.33
2018-12-28T13:24:22.944Z,1.26
2018-12-28T13:26:53.736Z,1.29
2018-12-28T13:29:24.830Z,1.36
2018-12-28T13:31:56.354Z,1.26
2018-12-28T13:34:27.822Z,1.27
2018-12-28T13:36:58.906Z,1.25
2018-12-28T13:39:30.310Z,1.23
2018-12-28T13:42:01.779Z,1.24
2018-12-28T13:44:33.199Z,1.28
2018-12-28T13:47:05.117Z,1.24
2018-12-28T13:49:36.453Z,1.21
2018-12-28T13:52:07.541Z,1.14
2018-12-28T13:54:39.345Z,1.15
2018-12-28T13:57:10.232Z,1.16
2018-12-28T13:59:41.316Z,1.25
2018-12-28T14:02:12.994Z,1.14
2018-12-28T14:04:44.250Z,1.23
2018-12-28T14:07:16.943Z,1.18
2018-12-28T14:09:48.265Z,1.19
2018-12-28T14:12:19.742Z,1.20
2018-12-28T14:14:50.699Z,1.16
2018-12-28T14:17:22.001Z,1.15
2018-12-28T14:19:53.692Z,1.29
2018-12-28T14:22:25.470Z,1.33
2018-12-28T14:24:57.506Z,1.21
2018-12-28T14:27:28.982Z,1.13
2018-12-28T14:30:00.940Z,1.18
2018-12-28T14:32:32.561Z,1.16
2018-12-28T14:35:05.133Z,1.24
2018-12-28T14:37:36.647Z,1.24
2018-12-28T14:40:07.873Z,1.28
2018-12-28T14:42:39.339Z,1.23
2018-12-28T14:45:10.714Z,1.24
2018-12-28T14:47:42.726Z,1.22
2018-12-28T14:50:14.642Z,1.03
2018-12-28T14:52:46.205Z,1.09
2018-12-28T14:55:17.490Z,1.09
2018-12-28T14:57:49.017Z,1.14
2018-12-28T15:00:39.499Z,1.19
2018-12-28T15:03:11.116Z,1.09
2018-12-28T15:05:43.286Z,0.97
2018-12-28T15:08:14.498Z,1.04
2018-12-28T15:10:46.629Z,1.05
2018-12-28T15:13:18.446Z,1.04
2018-12-28T15:15:51.210Z,0.99
2018-12-28T15:18:22.464Z,0.94
2018-12-28T15:20:55.074Z,0.98
2018-12-28T15:23:26.165Z,0.90
2018-12-28T15:25:57.919Z,0.87
2018-12-28T15:28:29.820Z,0.88
2018-12-28T15:31:01.596Z,0.90
2018-12-28T15:33:32.854Z,0.89
2018-12-28T15:36:05.279Z,0.84
2018-12-28T15:38:36.496Z,0.85
2018-12-28T15:41:07.346Z,0.78
2018-12-28T15:44:18.960Z,0.79
2018-12-28T15:46:50.226Z,0.75
2018-12-28T15:49:22.287Z,0.80
2018-12-28T15:51:54.411Z,0.76
2018-12-28T15:54:25.964Z,0.75
2018-12-28T15:56:56.839Z,0.77
2018-12-28T15:59:28.056Z,0.72
2018-12-28T16:02:00.610Z,0.71
2018-12-28T16:04:51.185Z,0.72
2018-12-28T16:08:17.824Z,0.72
2018-12-28T16:11:09.750Z,0.82
2018-12-28T16:16:36.670Z,0.74
2018-12-28T16:19:10.535Z,0.63
2018-12-28T16:21:41.934Z,0.71
2018-12-28T16:24:13.198Z,0.74
2018-12-28T16:26:44.314Z,0.79
2018-12-28T16:29:15.131Z,0.75
2018-12-28T16:31:46.488Z,0.55
2018-12-28T16:34:17.363Z,0.58
2018-12-28T16:36:48.793Z,0.64
2018-12-28T16:39:20.081Z,0.69
2018-12-28T16:41:51.258Z,0.76
2018-12-28T16:44:22.554Z,0.81
2018-12-28T16:46:53.643Z,0.76
2018-12-28T16:49:24.951Z,0.81
2018-12-28T16:51:56.563Z,0.77
2018-12-28T16:54:27.590Z,0.90
2018-12-28T16:56:58.593Z,0.93
2018-12-28T16:59:29.626Z,0.92
2018-12-28T17:02:00.815Z,0.79
2018-12-28T17:04:31.836Z,0.84
2018-12-28T17:07:03.653Z,0.82
2018-12-28T17:09:35.091Z,0.89
2018-12-28T17:12:06.198Z,0.90
2018-12-28T17:14:37.813Z,0.82
2018-12-28T17:17:08.895Z,0.84
2018-12-28T17:19:40.464Z,0.81
2018-12-28T17:22:11.658Z,0.87
2018-12-28T17:24:43.511Z,0.93
2018-12-28T17:27:14.529Z,0.88
2018-12-28T17:29:45.390Z,0.86
2018-12-28T17:32:16.229Z,0.87
2018-12-28T17:34:47.224Z,0.92
2018-12-28T17:37:18.245Z,0.97
2018-12-28T17:39:49.334Z,0.89
2018-12-28T17:42:20.438Z,0.89
2018-12-28T17:44:51.734Z,0.93
2018-12-28T17:47:23.031Z,0.89
2018-12-28T17:49:54.172Z,0.95
2018-12-28T17:52:25.282Z,1.02
2018-12-28T17:54:56.364Z,0.99
2018-12-28T17:57:27.470Z,1.09
2018-12-28T17:59:58.320Z,1.07
2018-12-28T18:02:29.654Z,1.04
2018-12-28T18:05:01.041Z,1.00
2018-12-28T18:07:32.211Z,1.22
2018-12-28T18:10:03.661Z,1.13
2018-12-28T18:12:36.076Z,1.11
2018-12-28T18:15:07.419Z,1.04
2018-12-28T18:24:35.218Z,1.09
2018-12-28T18:30:27.490Z,1.08
2018-12-28T18:33:17.782Z,1.11
2018-12-28T18:44:04.773Z,1.16
2018-12-28T18:46:55.141Z,1.14
2018-12-28T18:49:26.496Z,1.15
2018-12-28T18:52:40.142Z,1.09
2018-12-28T18:55:12.385Z,1.14
2018-12-28T19:01:23.508Z,1.16
2018-12-28T19:03:54.670Z,1.02
2018-12-28T19:06:27.495Z,1.13
2018-12-28T19:09:21.508Z,1.09
2018-12-28T19:12:19.110Z,1.10
2018-12-28T19:14:48.464Z,1.11
2018-12-28T19:17:19.502Z,1.09
2018-12-28T19:19:51.621Z,1.07
2018-12-28T19:22:22.918Z,1.07
2018-12-28T19:24:55.219Z,1.20
2018-12-28T19:27:26.898Z,1.14
2018-12-28T19:29:58.568Z,1.22
2018-12-28T19:32:30.117Z,1.20
2018-12-28T19:35:01.066Z,1.20
2018-12-28T19:37:33.404Z,1.13
2018-12-28T19:40:05.121Z,1.20
2018-12-28T19:42:37.356Z,1.13
2018-12-28T19:45:08.901Z,1.14
2018-12-28T19:47:40.696Z,1.24
2018-12-28T19:50:11.470Z,1.15
2018-12-28T19:52:42.455Z,1.07
2018-12-28T19:55:14.540Z,1.03
2018-12-28T19:57:45.684Z,1.12
2018-12-28T20:00:17.190Z,1.07
2018-12-28T20:02:48.386Z,1.16
2018-12-28T20:05:19.416Z,1.07
2018-12-28T20:07:50.559Z,1.15
2018-12-28T20:10:21.658Z,1.17
2018-12-28T20:12:52.689Z,1.29
2018-12-28T20:15:23.738Z,1.25
2018-12-28T20:17:54.928Z,1.15
2018-12-28T20:20:25.822Z,1.19
2018-12-28T20:22:57.698Z,1.33
2018-12-28T20:25:28.891Z,1.16
2018-12-28T20:28:01.847Z,1.20
2018-12-28T20:30:33.358Z,1.30
2018-12-28T20:33:04.766Z,1.21
2018-12-28T20:35:35.962Z,1.15
2018-12-28T20:38:06.851Z,1.19
2018-12-28T20:40:37.685Z,1.12
2018-12-28T20:43:09.143Z,1.11
2018-12-28T20:45:41.276Z,1.11
2018-12-28T20:48:12.379Z,1.09
2018-12-28T20:50:44.311Z,1.15
2018-12-28T20:53:15.454Z,1.14
2018-12-28T20:55:46.576Z,1.14
2018-12-28T20:58:17.615Z,1.33
2018-12-28T21:00:48.560Z,1.23
2018-12-28T21:03:21.113Z,1.14
2018-12-28T21:05:53.306Z,1.17
2018-12-28T21:08:24.420Z,1.07
2018-12-28T21:10:55.438Z,1.08
2018-12-28T21:13:26.765Z,1.09
2018-12-28T21:15:57.940Z,1.07
2018-12-28T21:18:29.205Z,1.04
2018-12-28T21:21:00.053Z,1.04
2018-12-28T21:23:31.044Z,0.99
2018-12-28T21:26:02.390Z,0.98
2018-12-28T21:28:33.457Z,1.01
2018-12-28T21:31:04.824Z,0.98
2018-12-28T21:33:36.318Z,1.19
2018-12-28T21:36:07.162Z,1.05
2018-12-28T21:38:38.256Z,0.99
2018-12-28T21:41:09.283Z,0.95
2018-12-28T21:43:41.077Z,0.95
2018-12-28T21:46:11.939Z,0.94
2018-12-28T21:48:44.162Z,0.96
2018-12-28T21:51:15.503Z,0.96
2018-12-28T21:53:47.490Z,1.03
2018-12-28T21:56:18.821Z,0.90
2018-12-28T21:58:50.390Z,0.82
2018-12-28T22:01:21.642Z,0.79
2018-12-28T22:03:53.341Z,0.79
2018-12-28T22:06:24.225Z,0.80
2018-12-28T22:08:56.115Z,0.84
2018-12-28T22:11:27.843Z,0.84
2018-12-28T22:13:58.713Z,0.75
2018-12-28T22:16:30.053Z,0.71
2018-12-28T22:19:01.095Z,0.68
2018-12-28T22:21:32.473Z,0.71
2018-12-28T22:24:03.701Z,0.73
2018-12-28T22:26:34.713Z,0.73
2018-12-28T22:29:06.004Z,0.70
2018-12-28T22:31:37.291Z,0.63
2018-12-28T22:34:08.954Z,0.71
2018-12-28T22:36:40.037Z,0.77
2018-12-28T22:39:11.055Z,0.78
2018-12-28T22:41:41.907Z,0.78
2018-12-28T22:44:13.014Z,0.77
2018-12-28T22:46:44.238Z,0.75
2018-12-28T22:49:15.416Z,0.71
2018-12-28T22:51:46.589Z,0.86
2018-12-28T22:54:17.669Z,0.76
2018-12-28T22:56:48.811Z,0.78
2018-12-28T22:59:19.649Z,0.74
2018-12-28T23:01:50.872Z,0.78
2018-12-28T23:04:25.596Z,0.72
2018-12-28T23:06:56.563Z,0.69
2018-12-28T23:09:28.049Z,0.73
2018-12-28T23:11:59.510Z,0.71
2018-12-28T23:14:30.603Z,0.69
2018-12-28T23:17:01.682Z,0.68
2018-12-28T23:19:32.469Z,0.71
2018-12-28T23:22:04.062Z,0.82
2018-12-28T23:24:35.088Z,0.87
2018-12-28T23:27:06.172Z,0.72
2018-12-28T23:29:37.487Z,0.74
2018-12-28T23:32:08.666Z,0.74
2018-12-28T23:34:39.941Z,0.72
2018-12-28T23:37:10.791Z,0.78
2018-12-28T23:39:42.673Z,0.70
2018-12-28T23:42:13.678Z,0.70
2018-12-28T23:44:47.756Z,0.69
2018-12-28T23:47:17.743Z,0.73
2018-12-28T23:49:49.343Z,0.73
2018-12-28T23:52:20.746Z,0.72
2018-12-28T23:54:51.758Z,0.89
2018-12-28T23:57:22.599Z,0.77
2018-12-28T23:59:53.729Z,0.72
